x

South Brooks (46132) Wave Buoy

9:00 - Thu 18th Dec 2014 All times are PST. -8 hours from GMT.

  • Sig Wave height 12.5ft
  • Peak Period 8s
  • Wind
    22mph, 27mph gusts
  • Sea Temp 53°f
  • Ar Temp 51°f
  • Sea Pressure 997.1mb
  • South Brooks
  • South Brooks

More Historic Weather Station data

Upgrade to MSW Pro to gain access to the past 30 days of data for over 8000 Wavebouys and Weather Stations around the globe.

Join Pro

Comparision Forecast

View Surf forecast
   
Qui 12/18 9:00 12.5ft 8s 22 27 mph 997.1mb 53f 51f
8:00 13.5ft 10s 18 22 mph 996.9mb 53f 50f
7:00 15ft 10s 13 16 mph 996.9mb 52f 50f
6:00 15ft 10s 18 25 mph 996.1mb 52f 50f
5:00 16ft 10s 22 27 mph 995.6mb 52f 51f
4:00 16.5ft 10s 25 31 mph 995.2mb 52f 52f
3:00 17.5ft 9s 31 36 mph 994.5mb 53f 52f
2:00 18.5ft 9s 36 47 mph 994.7mb 53f 51f
1:00 16.5ft 8s 38 49 mph 995mb 53f 50f
12:00 15.5ft 8s 40 54 mph 996.5mb 53f 50f
11:00 15ft 8s 40 51 mph 997.6mb 53f 51f
10:00 15.5ft 8s 40 51 mph 998.9mb 53f 51f
9:00 13ft 8s 40 49 mph 1000mb 54f 50f
8:00 12ft 6s 40 51 mph 1000.6mb 54f 50f
7:00 11ft 14s 40 49 mph 1001.7mb 53f 50f
6:00 10ft 13s 38 47 mph 1003mb 53f 50f
5:00 10ft 14s 31 38 mph 1004.4mb 52f 50f
4:00 9ft 12s 29 34 mph 1005.7mb 52f 50f
3:00 9ft 13s 27 34 mph 1006.5mb 52f 50f
2:00 8.5ft 13s 25 29 mph 1007.4mb 52f 49f
1:00 9ft 13s 22 27 mph 1008.3mb 52f 49f
12:00 9ft 14s 20 27 mph 1008.8mb 52f 49f
Qua 12/17 11:00 9ft 14s 20 22 mph 1009.5mb 52f 49f
10:00 9ft 14s 16 20 mph 1009.9mb 52f 49f
9:00 9ft 14s 16 20 mph 1009.9mb 52f 49f
8:00 8ft 14s 13 20 mph 1009.9mb 52f 49f
7:00 9ft 14s 13 16 mph 1010.4mb 52f 49f
6:00 9.5ft 15s 11 13 mph 1010.5mb 52f 48f
5:00 9ft 15s 7 11 mph 1010.5mb 52f 48f
4:00 9ft 15s 4 9 mph 1010.5mb 52f 48f
3:00 9ft 14s 4 7 mph 1010.2mb 52f 49f
2:00 10ft 15s 4 7 mph 1010mb 51f 49f
1:00 10.5ft 14s 2 4 mph 1009.9mb 51f 49f
12:00 10.5ft 14s 2 4 mph 1010.1mb 51f 48f
11:00 10ft 12s 2 4 mph 1010mb 51f 48f
10:00 11ft 14s 2 4 mph 1009.5mb 51f 48f
9:00 11.5ft 14s 4 7 mph 1009.5mb 52f 47f
8:00 11ft 14s 4 9 mph 1009.3mb 52f 47f
7:00 11ft 13s 7 9 mph 1008.9mb 52f 47f
6:00 12ft 14s 7 9 mph 1008.6mb 52f 47f
5:00 11ft 14s 7 9 mph 1008.7mb 52f 47f
4:00 11ft 15s 9 13 mph 1009mb 52f 47f
3:00 11ft 15s 4 9 mph 1008.6mb 52f 46f
2:00 10.5ft 15s 4 9 mph 1007.9mb 52f 46f
1:00 10ft 14s 4 11 mph 1007.6mb 52f 46f
12:00 11ft 14s 9 11 mph 1007.7mb 52f 46f
Ter 12/16 11:00 11.5ft 14s 7 11 mph 1007.7mb 52f 46f
10:00 10ft 14s 9 13 mph 1007.6mb 51f 46f
9:00 11ft 14s 11 16 mph 1007mb 51f 46f
8:00 11ft 12s 13 18 mph 1006.4mb 51f 46f
7:00 12ft 9s 18 25 mph 1006.4mb 51f 45f
6:00 11.5ft 11s 27 31 mph 1005.7mb 51f 45f
5:00 11ft 9s 22 29 mph 1005.6mb 51f 46f
4:00 12ft 11s 16 20 mph 1005mb 51f 51f
3:00 13ft 8s 25 31 mph 1004.3mb 51f 50f
2:00 13ft 8s 34 43 mph 1003.5mb 51f 49f
1:00 12ft 9s 34 40 mph 1003.4mb 51f 49f
12:00 12.5ft 8s 31 40 mph 1004mb 51f 49f
11:00 13ft 7s 34 43 mph 1003.9mb 51f 49f
10:00 12.5ft 8s 34 40 mph 1003.9mb 51f 49f
9:00 12ft 10s 31 40 mph 1003.5mb 51f 49f
8:00 13ft 10s 31 40 mph 1003.3mb 51f 49f
7:00 13ft 8s 34 40 mph 1003.3mb 51f 49f
6:00 13ft 9s 31 40 mph 1003.2mb 51f 49f
5:00 15ft 10s 29 36 mph 1003.4mb 51f 49f
4:00 15.5ft 10s 31 40 mph 1003.4mb 51f 49f
3:00  -   -  31
mph
1003.5mb - 49f
2:00 15.5ft 10s 31 40 mph 1003.8mb 51f 49f
1:00 16ft 10s 31 40 mph 1004mb 51f 48f
12:00 15ft 11s 34 40 mph 1004.1mb 51f 49f
Seg 12/15 11:00 15ft 10s 34 43 mph 1004mb 51f 49f
10:00 15ft 12s 34 40 mph 1003.8mb 51f 49f
9:00 14.5ft 11s 34 43 mph 1003.9mb 51f 49f
8:00 15.5ft 11s 31 38 mph 1004.4mb 51f 49f
7:00 16ft 14s 31 40 mph 1004.6mb 51f 49f
6:00 16ft 9s 31 40 mph 1004.8mb 51f 50f
5:00 16.5ft 11s 31 40 mph 1005.1mb 51f 49f
4:00 18.5ft 11s 34 43 mph 1005.1mb 51f 49f
3:00 19.5ft 11s 36 43 mph 1005mb 51f 49f
2:00 19.5ft 11s 38 49 mph 1004.6mb 51f 49f
1:00 21ft 14s 36 47 mph 1004.9mb 51f 48f
12:00  -   -  38
mph
- - 49f
11:00 21.5ft 11s 40 51 mph 1004.1mb 51f 48f
10:00 20.5ft 10s 34 43 mph 1005.6mb 52f 49f
9:00 20.5ft 12s  -  mph 1005.2mb 52f -
8:00  -   -  38
mph
1004.8mb - 49f
7:00 18.5ft 11s 38 51 mph 1004.3mb 52f 51f